Aérodrome :
LOGIN :

S'inscrire | Disclaimer

   EN    FR    IT 

 










Légende :    VFR   VFR Marginal   IFR   IFR Intensif   IFR Très Intensif
Visi : 
Plafond : 
>= 8 km
>= 3000ft
5 à 8 km
1000 à 3000 ft
1500m à 5 km
500 à 1000 ft
800 à 1500m
200 à 500 ft
< 800m
< 200 ft
Symboles :   Orages  Brouillard  Fortes neiges  Fortes précipitations  Vent > 20 kt
SIGMETs :   Divers  Orages  Givrage  Turbulence  Onde Orograph.  Cendres Volcan.







- Altitude de l'aérodrome : 13 ft
- Code IATA : GOA


LIMJ - Genoa Cristoforo Colombo

DERNIER METAR :
  • 260650Z 18005KT 150V210 9999 SCT025 SCT048 12/07 Q1019

METARs EXPIRÉS :
  • 260620Z 19007KT 160V220 9999 SCT022 SCT044 12/06 Q1018
  • 260550Z 18006KT 150V220 9999 SCT022 SCT044 12/06 Q1018
  • 260520Z 19006KT 120V220 9999 SCT022 SCT044 12/06 Q1018
  • 260450Z 20010KT 9999 SCT015 SCT030 12/07 Q1018
  • 260420Z 19015KT 9999 SCT015 SCT035 13/08 Q1018

TAF TAF LIMJ
Valide du 26 à 06h jusqu'au 27 à 06h UTC


260500Z 2606/2706 17010KT 9999 SCT025 SCT060
Pas de NOTAMs connus pour ce terrain.



MET'MAP, la Météo Aéronautique d'un coup d'oeil ! - Copyright ORBIFLY Décembre 2007 - Disclaimer

ORBIFLY MET'MAP TEAM :

Programmation & Développement : Alexandra Zaïnal
Conception & Développement : Baudouin d'Aumeries
Co-Programmation & Développement : Marc-Olivier Méhu
Soutien technique & logistique : Manuel Goepfert

Contact : metmap@orbifly.com




SOURCES & CREDITS :

   NOAA